sensor_id;sensor_type;location;lat;lon;timestamp;P1;durP1;ratioP1;P2;durP2;ratioP2
21999;SDS011;11164;48.818;2.322;2023-05-14T00:00:46;31.23;;;19.90;;
21999;SDS011;11164;48.818;2.322;2023-05-14T00:03:11;33.72;;;20.25;;
21999;SDS011;11164;48.818;2.322;2023-05-14T00:05:37;26.55;;;19.08;;
21999;SDS011;11164;48.818;2.322;2023-05-14T00:08:02;27.17;;;18.65;;
21999;SDS011;11164;48.818;2.322;2023-05-14T00:10:28;31.38;;;19.95;;
21999;SDS011;11164;48.818;2.322;2023-05-14T00:12:53;30.08;;;19.40;;
21999;SDS011;11164;48.818;2.322;2023-05-14T00:15:19;28.60;;;19.95;;
21999;SDS011;11164;48.818;2.322;2023-05-14T00:17:44;32.17;;;20.13;;
21999;SDS011;11164;48.818;2.322;2023-05-14T00:20:10;27.70;;;19.63;;
21999;SDS011;11164;48.818;2.322;2023-05-14T00:22:36;28.55;;;19.65;;
21999;SDS011;11164;48.818;2.322;2023-05-14T00:25:03;29.42;;;19.77;;
21999;SDS011;11164;48.818;2.322;2023-05-14T00:27:29;31.05;;;19.80;;
21999;SDS011;11164;48.818;2.322;2023-05-14T00:29:54;32.67;;;20.77;;
21999;SDS011;11164;48.818;2.322;2023-05-14T00:32:20;30.73;;;19.88;;
21999;SDS011;11164;48.818;2.322;2023-05-14T00:34:45;30.58;;;19.95;;
21999;SDS011;11164;48.818;2.322;2023-05-14T00:37:11;29.95;;;19.92;;
21999;SDS011;11164;48.818;2.322;2023-05-14T00:39:36;27.48;;;19.65;;
21999;SDS011;11164;48.818;2.322;2023-05-14T00:42:01;29.05;;;19.88;;
21999;SDS011;11164;48.818;2.322;2023-05-14T00:44:27;30.08;;;18.85;;
21999;SDS011;11164;48.818;2.322;2023-05-14T00:46:52;28.80;;;19.70;;
21999;SDS011;11164;48.818;2.322;2023-05-14T00:49:18;29.60;;;20.00;;
21999;SDS011;11164;48.818;2.322;2023-05-14T00:51:43;33.28;;;19.88;;
21999;SDS011;11164;48.818;2.322;2023-05-14T00:54:13;30.90;;;19.70;;
21999;SDS011;11164;48.818;2.322;2023-05-14T00:56:40;30.75;;;20.85;;
21999;SDS011;11164;48.818;2.322;2023-05-14T00:59:07;26.95;;;20.08;;
21999;SDS011;11164;48.818;2.322;2023-05-14T01:01:32;28.48;;;19.73;;
21999;SDS011;11164;48.818;2.322;2023-05-14T01:03:58;28.50;;;19.63;;
21999;SDS011;11164;48.818;2.322;2023-05-14T01:08:58;30.55;;;19.58;;
21999;SDS011;11164;48.818;2.322;2023-05-14T01:14:18;33.20;;;19.58;;
21999;SDS011;11164;48.818;2.322;2023-05-14T01:16:47;30.42;;;20.50;;
21999;SDS011;11164;48.818;2.322;2023-05-14T01:19:20;29.40;;;20.83;;
21999;SDS011;11164;48.818;2.322;2023-05-14T01:21:53;27.50;;;20.23;;
21999;SDS011;11164;48.818;2.322;2023-05-14T01:24:18;27.52;;;20.58;;
21999;SDS011;11164;48.818;2.322;2023-05-14T01:26:44;31.90;;;20.05;;
21999;SDS011;11164;48.818;2.322;2023-05-14T01:29:14;32.47;;;19.90;;
21999;SDS011;11164;48.818;2.322;2023-05-14T01:31:44;31.70;;;20.63;;
21999;SDS011;11164;48.818;2.322;2023-05-14T01:34:11;31.67;;;21.38;;
21999;SDS011;11164;48.818;2.322;2023-05-14T01:36:39;32.88;;;20.90;;
21999;SDS011;11164;48.818;2.322;2023-05-14T01:39:06;30.27;;;21.25;;
21999;SDS011;11164;48.818;2.322;2023-05-14T01:41:35;37.65;;;22.70;;
21999;SDS011;11164;48.818;2.322;2023-05-14T01:44:03;34.47;;;23.25;;
21999;SDS011;11164;48.818;2.322;2023-05-14T01:46:32;34.80;;;23.20;;
21999;SDS011;11164;48.818;2.322;2023-05-14T01:48:58;33.28;;;23.85;;
21999;SDS011;11164;48.818;2.322;2023-05-14T01:51:26;36.20;;;23.38;;
21999;SDS011;11164;48.818;2.322;2023-05-14T01:53:51;37.00;;;25.20;;
21999;SDS011;11164;48.818;2.322;2023-05-14T01:56:18;33.85;;;23.05;;
21999;SDS011;11164;48.818;2.322;2023-05-14T01:58:45;39.38;;;23.00;;
21999;SDS011;11164;48.818;2.322;2023-05-14T02:01:11;33.25;;;23.98;;
21999;SDS011;11164;48.818;2.322;2023-05-14T02:03:36;36.05;;;24.60;;
21999;SDS011;11164;48.818;2.322;2023-05-14T02:06:01;37.30;;;24.90;;
21999;SDS011;11164;48.818;2.322;2023-05-14T02:08:27;34.17;;;24.70;;
21999;SDS011;11164;48.818;2.322;2023-05-14T02:10:52;39.42;;;25.77;;
21999;SDS011;11164;48.818;2.322;2023-05-14T02:13:17;35.10;;;24.88;;
21999;SDS011;11164;48.818;2.322;2023-05-14T02:15:43;41.55;;;26.13;;
21999;SDS011;11164;48.818;2.322;2023-05-14T02:18:08;33.50;;;22.73;;
21999;SDS011;11164;48.818;2.322;2023-05-14T02:20:33;36.45;;;24.50;;
21999;SDS011;11164;48.818;2.322;2023-05-14T02:22:59;36.58;;;25.13;;
21999;SDS011;11164;48.818;2.322;2023-05-14T02:25:24;40.15;;;26.00;;
21999;SDS011;11164;48.818;2.322;2023-05-14T02:27:50;36.63;;;24.42;;
21999;SDS011;11164;48.818;2.322;2023-05-14T02:30:15;37.80;;;24.73;;
21999;SDS011;11164;48.818;2.322;2023-05-14T02:32:40;38.60;;;23.95;;
21999;SDS011;11164;48.818;2.322;2023-05-14T02:35:06;36.72;;;24.40;;
21999;SDS011;11164;48.818;2.322;2023-05-14T02:37:31;38.45;;;25.77;;
21999;SDS011;11164;48.818;2.322;2023-05-14T02:39:58;40.58;;;26.55;;
21999;SDS011;11164;48.818;2.322;2023-05-14T02:42:25;35.80;;;25.25;;
21999;SDS011;11164;48.818;2.322;2023-05-14T02:44:51;45.10;;;26.42;;
21999;SDS011;11164;48.818;2.322;2023-05-14T02:47:16;34.38;;;24.80;;
21999;SDS011;11164;48.818;2.322;2023-05-14T02:49:42;33.05;;;24.63;;
21999;SDS011;11164;48.818;2.322;2023-05-14T02:52:07;38.45;;;24.13;;
21999;SDS011;11164;48.818;2.322;2023-05-14T02:54:33;33.15;;;22.85;;
21999;SDS011;11164;48.818;2.322;2023-05-14T02:56:58;38.85;;;23.75;;
21999;SDS011;11164;48.818;2.322;2023-05-14T02:59:23;39.10;;;24.98;;
21999;SDS011;11164;48.818;2.322;2023-05-14T03:01:49;38.55;;;25.67;;
21999;SDS011;11164;48.818;2.322;2023-05-14T03:04:14;39.85;;;27.13;;
21999;SDS011;11164;48.818;2.322;2023-05-14T03:06:39;38.42;;;24.88;;
21999;SDS011;11164;48.818;2.322;2023-05-14T03:09:05;40.20;;;24.40;;
21999;SDS011;11164;48.818;2.322;2023-05-14T03:11:31;42.30;;;26.13;;
21999;SDS011;11164;48.818;2.322;2023-05-14T03:13:57;42.58;;;26.00;;
21999;SDS011;11164;48.818;2.322;2023-05-14T03:16:22;39.53;;;26.15;;
21999;SDS011;11164;48.818;2.322;2023-05-14T03:18:47;45.45;;;25.15;;
21999;SDS011;11164;48.818;2.322;2023-05-14T03:21:13;37.45;;;24.98;;
21999;SDS011;11164;48.818;2.322;2023-05-14T03:23:38;40.30;;;26.10;;
21999;SDS011;11164;48.818;2.322;2023-05-14T03:26:03;41.58;;;25.65;;
21999;SDS011;11164;48.818;2.322;2023-05-14T03:28:29;39.47;;;25.05;;
21999;SDS011;11164;48.818;2.322;2023-05-14T03:30:54;39.28;;;25.35;;
21999;SDS011;11164;48.818;2.322;2023-05-14T03:33:20;40.05;;;26.20;;
21999;SDS011;11164;48.818;2.322;2023-05-14T03:35:46;41.42;;;28.08;;
21999;SDS011;11164;48.818;2.322;2023-05-14T03:38:12;39.13;;;26.08;;
21999;SDS011;11164;48.818;2.322;2023-05-14T03:40:37;43.38;;;27.85;;
21999;SDS011;11164;48.818;2.322;2023-05-14T03:43:03;43.95;;;27.77;;
21999;SDS011;11164;48.818;2.322;2023-05-14T03:45:28;46.28;;;27.30;;
21999;SDS011;11164;48.818;2.322;2023-05-14T03:47:54;47.45;;;26.02;;
21999;SDS011;11164;48.818;2.322;2023-05-14T03:50:19;41.78;;;26.73;;
21999;SDS011;11164;48.818;2.322;2023-05-14T03:52:45;39.90;;;25.13;;
21999;SDS011;11164;48.818;2.322;2023-05-14T03:55:10;40.90;;;26.10;;
21999;SDS011;11164;48.818;2.322;2023-05-14T03:57:36;47.08;;;28.13;;
21999;SDS011;11164;48.818;2.322;2023-05-14T04:00:02;41.78;;;27.08;;
21999;SDS011;11164;48.818;2.322;2023-05-14T04:02:28;45.55;;;27.70;;
21999;SDS011;11164;48.818;2.322;2023-05-14T04:04:53;42.45;;;26.98;;
21999;SDS011;11164;48.818;2.322;2023-05-14T04:07:18;40.25;;;26.02;;
21999;SDS011;11164;48.818;2.322;2023-05-14T04:09:44;43.05;;;27.15;;
21999;SDS011;11164;48.818;2.322;2023-05-14T04:12:09;40.45;;;26.27;;
21999;SDS011;11164;48.818;2.322;2023-05-14T04:14:34;41.50;;;26.67;;
21999;SDS011;11164;48.818;2.322;2023-05-14T04:17:00;43.53;;;26.75;;
21999;SDS011;11164;48.818;2.322;2023-05-14T04:19:25;41.58;;;25.70;;
21999;SDS011;11164;48.818;2.322;2023-05-14T04:21:50;48.08;;;26.17;;
21999;SDS011;11164;48.818;2.322;2023-05-14T04:24:16;46.28;;;26.08;;
21999;SDS011;11164;48.818;2.322;2023-05-14T04:26:41;44.47;;;26.90;;
21999;SDS011;11164;48.818;2.322;2023-05-14T04:29:07;52.83;;;27.95;;
21999;SDS011;11164;48.818;2.322;2023-05-14T04:31:32;48.78;;;28.40;;
21999;SDS011;11164;48.818;2.322;2023-05-14T04:33:57;44.25;;;26.92;;
21999;SDS011;11164;48.818;2.322;2023-05-14T04:36:23;42.75;;;26.65;;
21999;SDS011;11164;48.818;2.322;2023-05-14T04:38:48;47.42;;;27.35;;
21999;SDS011;11164;48.818;2.322;2023-05-14T04:41:14;45.60;;;26.83;;
21999;SDS011;11164;48.818;2.322;2023-05-14T04:43:39;45.78;;;27.73;;
21999;SDS011;11164;48.818;2.322;2023-05-14T04:46:04;42.63;;;27.05;;
21999;SDS011;11164;48.818;2.322;2023-05-14T04:48:30;46.13;;;25.55;;
21999;SDS011;11164;48.818;2.322;2023-05-14T04:50:55;38.45;;;23.90;;
21999;SDS011;11164;48.818;2.322;2023-05-14T04:53:20;40.45;;;24.75;;
21999;SDS011;11164;48.818;2.322;2023-05-14T04:55:46;42.50;;;25.10;;
21999;SDS011;11164;48.818;2.322;2023-05-14T04:58:11;44.67;;;25.85;;
21999;SDS011;11164;48.818;2.322;2023-05-14T05:00:38;46.95;;;25.90;;
21999;SDS011;11164;48.818;2.322;2023-05-14T05:03:04;42.75;;;25.50;;
21999;SDS011;11164;48.818;2.322;2023-05-14T05:05:30;46.72;;;26.38;;
21999;SDS011;11164;48.818;2.322;2023-05-14T05:07:55;39.08;;;25.27;;
21999;SDS011;11164;48.818;2.322;2023-05-14T05:10:20;45.80;;;26.58;;
21999;SDS011;11164;48.818;2.322;2023-05-14T05:12:46;45.20;;;26.27;;
21999;SDS011;11164;48.818;2.322;2023-05-14T05:15:11;40.83;;;26.08;;
21999;SDS011;11164;48.818;2.322;2023-05-14T05:17:37;43.55;;;25.80;;
21999;SDS011;11164;48.818;2.322;2023-05-14T05:20:03;49.17;;;27.80;;
21999;SDS011;11164;48.818;2.322;2023-05-14T05:22:32;45.47;;;25.70;;
21999;SDS011;11164;48.818;2.322;2023-05-14T05:24:57;46.13;;;27.35;;
21999;SDS011;11164;48.818;2.322;2023-05-14T05:27:23;48.72;;;26.80;;
21999;SDS011;11164;48.818;2.322;2023-05-14T05:29:49;43.97;;;26.27;;
21999;SDS011;11164;48.818;2.322;2023-05-14T05:32:14;43.17;;;25.67;;
21999;SDS011;11164;48.818;2.322;2023-05-14T05:34:39;41.80;;;24.08;;
21999;SDS011;11164;48.818;2.322;2023-05-14T05:37:05;44.60;;;26.58;;
21999;SDS011;11164;48.818;2.322;2023-05-14T05:39:30;44.47;;;25.88;;
21999;SDS011;11164;48.818;2.322;2023-05-14T05:41:58;46.28;;;26.23;;
21999;SDS011;11164;48.818;2.322;2023-05-14T05:44:25;45.80;;;26.17;;
21999;SDS011;11164;48.818;2.322;2023-05-14T05:46:51;47.03;;;26.40;;
21999;SDS011;11164;48.818;2.322;2023-05-14T05:49:16;46.65;;;26.73;;
21999;SDS011;11164;48.818;2.322;2023-05-14T05:51:41;44.53;;;26.05;;
21999;SDS011;11164;48.818;2.322;2023-05-14T05:54:06;46.47;;;26.23;;
21999;SDS011;11164;48.818;2.322;2023-05-14T05:56:32;45.33;;;25.40;;
21999;SDS011;11164;48.818;2.322;2023-05-14T05:58:57;48.90;;;28.67;;
21999;SDS011;11164;48.818;2.322;2023-05-14T06:01:22;48.05;;;27.67;;
21999;SDS011;11164;48.818;2.322;2023-05-14T06:03:48;49.50;;;26.83;;
21999;SDS011;11164;48.818;2.322;2023-05-14T06:06:13;50.28;;;27.15;;
21999;SDS011;11164;48.818;2.322;2023-05-14T06:08:39;47.53;;;26.83;;
21999;SDS011;11164;48.818;2.322;2023-05-14T06:11:06;46.78;;;26.15;;
21999;SDS011;11164;48.818;2.322;2023-05-14T06:13:31;46.38;;;28.23;;
21999;SDS011;11164;48.818;2.322;2023-05-14T06:15:57;49.80;;;28.27;;
21999;SDS011;11164;48.818;2.322;2023-05-14T06:18:22;50.63;;;27.50;;
21999;SDS011;11164;48.818;2.322;2023-05-14T06:20:47;50.35;;;28.88;;
21999;SDS011;11164;48.818;2.322;2023-05-14T06:23:13;51.88;;;28.02;;
21999;SDS011;11164;48.818;2.322;2023-05-14T06:25:38;45.58;;;26.08;;
21999;SDS011;11164;48.818;2.322;2023-05-14T06:28:03;46.58;;;26.88;;
21999;SDS011;11164;48.818;2.322;2023-05-14T06:30:29;47.03;;;27.95;;
21999;SDS011;11164;48.818;2.322;2023-05-14T06:32:54;47.92;;;26.45;;
21999;SDS011;11164;48.818;2.322;2023-05-14T06:35:19;47.35;;;27.70;;
21999;SDS011;11164;48.818;2.322;2023-05-14T06:37:45;49.85;;;26.67;;
21999;SDS011;11164;48.818;2.322;2023-05-14T06:40:11;49.67;;;26.58;;
21999;SDS011;11164;48.818;2.322;2023-05-14T06:42:37;47.60;;;26.83;;
21999;SDS011;11164;48.818;2.322;2023-05-14T06:45:02;44.60;;;26.67;;
21999;SDS011;11164;48.818;2.322;2023-05-14T06:47:28;46.35;;;28.52;;
21999;SDS011;11164;48.818;2.322;2023-05-14T06:49:54;45.47;;;26.70;;
21999;SDS011;11164;48.818;2.322;2023-05-14T06:52:22;46.22;;;27.40;;
21999;SDS011;11164;48.818;2.322;2023-05-14T06:54:48;45.55;;;25.40;;
21999;SDS011;11164;48.818;2.322;2023-05-14T06:57:13;47.35;;;26.05;;
21999;SDS011;11164;48.818;2.322;2023-05-14T06:59:38;49.67;;;26.88;;
21999;SDS011;11164;48.818;2.322;2023-05-14T07:02:04;45.72;;;26.23;;
21999;SDS011;11164;48.818;2.322;2023-05-14T07:04:29;48.33;;;26.42;;
21999;SDS011;11164;48.818;2.322;2023-05-14T07:06:54;44.20;;;24.98;;
21999;SDS011;11164;48.818;2.322;2023-05-14T07:09:20;50.53;;;26.42;;
21999;SDS011;11164;48.818;2.322;2023-05-14T07:11:45;47.65;;;26.98;;
21999;SDS011;11164;48.818;2.322;2023-05-14T07:14:11;44.90;;;25.85;;
21999;SDS011;11164;48.818;2.322;2023-05-14T07:16:36;46.50;;;26.85;;
21999;SDS011;11164;48.818;2.322;2023-05-14T07:19:02;49.22;;;27.08;;
21999;SDS011;11164;48.818;2.322;2023-05-14T07:21:27;45.58;;;27.25;;
21999;SDS011;11164;48.818;2.322;2023-05-14T07:23:52;47.22;;;26.65;;
21999;SDS011;11164;48.818;2.322;2023-05-14T07:26:18;48.60;;;27.27;;
21999;SDS011;11164;48.818;2.322;2023-05-14T07:28:43;47.35;;;25.98;;
21999;SDS011;11164;48.818;2.322;2023-05-14T07:31:08;48.53;;;27.10;;
21999;SDS011;11164;48.818;2.322;2023-05-14T07:33:34;44.92;;;27.17;;
21999;SDS011;11164;48.818;2.322;2023-05-14T07:36:00;51.67;;;27.85;;
21999;SDS011;11164;48.818;2.322;2023-05-14T07:38:26;49.15;;;27.77;;
21999;SDS011;11164;48.818;2.322;2023-05-14T07:40:51;46.05;;;26.42;;
21999;SDS011;11164;48.818;2.322;2023-05-14T07:43:17;51.38;;;28.08;;
21999;SDS011;11164;48.818;2.322;2023-05-14T07:45:42;52.67;;;28.15;;
21999;SDS011;11164;48.818;2.322;2023-05-14T07:48:08;54.03;;;28.35;;
21999;SDS011;11164;48.818;2.322;2023-05-14T07:50:33;53.28;;;27.95;;
21999;SDS011;11164;48.818;2.322;2023-05-14T07:52:58;54.97;;;28.42;;
21999;SDS011;11164;48.818;2.322;2023-05-14T07:55:24;53.08;;;28.25;;
21999;SDS011;11164;48.818;2.322;2023-05-14T07:57:49;45.97;;;26.10;;
21999;SDS011;11164;48.818;2.322;2023-05-14T08:00:15;53.17;;;28.15;;
21999;SDS011;11164;48.818;2.322;2023-05-14T08:02:41;43.58;;;24.80;;
21999;SDS011;11164;48.818;2.322;2023-05-14T08:05:06;48.25;;;26.75;;
21999;SDS011;11164;48.818;2.322;2023-05-14T08:07:33;45.92;;;25.25;;
21999;SDS011;11164;48.818;2.322;2023-05-14T08:09:59;48.33;;;26.77;;
21999;SDS011;11164;48.818;2.322;2023-05-14T08:12:25;44.05;;;25.58;;
21999;SDS011;11164;48.818;2.322;2023-05-14T08:14:51;41.45;;;24.95;;
21999;SDS011;11164;48.818;2.322;2023-05-14T08:17:17;44.85;;;24.67;;
21999;SDS011;11164;48.818;2.322;2023-05-14T08:19:44;48.17;;;26.00;;
21999;SDS011;11164;48.818;2.322;2023-05-14T08:22:11;46.50;;;26.00;;
21999;SDS011;11164;48.818;2.322;2023-05-14T08:24:40;49.85;;;27.90;;
21999;SDS011;11164;48.818;2.322;2023-05-14T08:27:08;49.17;;;26.55;;
21999;SDS011;11164;48.818;2.322;2023-05-14T08:29:35;43.85;;;25.83;;
21999;SDS011;11164;48.818;2.322;2023-05-14T08:32:00;44.72;;;25.25;;
21999;SDS011;11164;48.818;2.322;2023-05-14T08:34:27;46.38;;;24.70;;
21999;SDS011;11164;48.818;2.322;2023-05-14T08:36:52;45.42;;;25.23;;
21999;SDS011;11164;48.818;2.322;2023-05-14T08:39:18;43.22;;;25.45;;
21999;SDS011;11164;48.818;2.322;2023-05-14T08:41:44;42.60;;;24.33;;
21999;SDS011;11164;48.818;2.322;2023-05-14T08:44:20;43.35;;;23.83;;
21999;SDS011;11164;48.818;2.322;2023-05-14T08:46:56;40.90;;;23.85;;
21999;SDS011;11164;48.818;2.322;2023-05-14T08:49:41;41.97;;;24.83;;
21999;SDS011;11164;48.818;2.322;2023-05-14T08:52:10;42.95;;;22.30;;
21999;SDS011;11164;48.818;2.322;2023-05-14T08:54:37;42.22;;;23.73;;
21999;SDS011;11164;48.818;2.322;2023-05-14T08:57:03;44.38;;;24.25;;
21999;SDS011;11164;48.818;2.322;2023-05-14T08:59:29;41.45;;;23.48;;
21999;SDS011;11164;48.818;2.322;2023-05-14T09:01:55;43.33;;;24.05;;
21999;SDS011;11164;48.818;2.322;2023-05-14T09:04:23;41.35;;;24.00;;
21999;SDS011;11164;48.818;2.322;2023-05-14T09:06:52;41.88;;;25.17;;
21999;SDS011;11164;48.818;2.322;2023-05-14T09:09:18;44.88;;;24.50;;
21999;SDS011;11164;48.818;2.322;2023-05-14T09:11:47;43.05;;;23.48;;
21999;SDS011;11164;48.818;2.322;2023-05-14T09:14:14;40.83;;;23.02;;
21999;SDS011;11164;48.818;2.322;2023-05-14T09:16:40;43.83;;;24.13;;
21999;SDS011;11164;48.818;2.322;2023-05-14T09:19:07;38.63;;;23.50;;
21999;SDS011;11164;48.818;2.322;2023-05-14T09:21:33;37.83;;;22.75;;
21999;SDS011;11164;48.818;2.322;2023-05-14T09:23:59;38.42;;;20.73;;
21999;SDS011;11164;48.818;2.322;2023-05-14T09:26:25;37.05;;;21.58;;
21999;SDS011;11164;48.818;2.322;2023-05-14T09:28:54;140.02;;;85.90;;
21999;SDS011;11164;48.818;2.322;2023-05-14T09:31:21;38.08;;;21.90;;
21999;SDS011;11164;48.818;2.322;2023-05-14T09:33:50;38.17;;;23.25;;
21999;SDS011;11164;48.818;2.322;2023-05-14T09:36:16;35.08;;;20.90;;
21999;SDS011;11164;48.818;2.322;2023-05-14T09:38:42;39.72;;;21.95;;
21999;SDS011;11164;48.818;2.322;2023-05-14T09:41:07;37.15;;;22.75;;
21999;SDS011;11164;48.818;2.322;2023-05-14T09:43:33;37.63;;;22.90;;
21999;SDS011;11164;48.818;2.322;2023-05-14T09:45:58;40.28;;;22.83;;
21999;SDS011;11164;48.818;2.322;2023-05-14T09:48:24;35.97;;;21.77;;
21999;SDS011;11164;48.818;2.322;2023-05-14T09:50:49;38.45;;;21.73;;
21999;SDS011;11164;48.818;2.322;2023-05-14T09:53:16;34.22;;;21.42;;
21999;SDS011;11164;48.818;2.322;2023-05-14T09:55:41;33.88;;;19.25;;
21999;SDS011;11164;48.818;2.322;2023-05-14T09:58:07;33.33;;;21.08;;
21999;SDS011;11164;48.818;2.322;2023-05-14T10:00:32;34.63;;;20.77;;
21999;SDS011;11164;48.818;2.322;2023-05-14T10:02:58;35.20;;;20.73;;
21999;SDS011;11164;48.818;2.322;2023-05-14T10:05:33;35.33;;;21.13;;
21999;SDS011;11164;48.818;2.322;2023-05-14T10:08:00;34.03;;;20.40;;
21999;SDS011;11164;48.818;2.322;2023-05-14T10:10:29;33.60;;;20.02;;
21999;SDS011;11164;48.818;2.322;2023-05-14T10:12:57;33.72;;;19.92;;
21999;SDS011;11164;48.818;2.322;2023-05-14T10:18:18;30.27;;;19.65;;
21999;SDS011;11164;48.818;2.322;2023-05-14T10:20:47;32.45;;;20.55;;
21999;SDS011;11164;48.818;2.322;2023-05-14T10:23:17;33.33;;;21.40;;
21999;SDS011;11164;48.818;2.322;2023-05-14T10:25:43;34.50;;;21.98;;
21999;SDS011;11164;48.818;2.322;2023-05-14T10:28:09;37.47;;;22.15;;
21999;SDS011;11164;48.818;2.322;2023-05-14T10:30:38;37.80;;;21.75;;
21999;SDS011;11164;48.818;2.322;2023-05-14T10:33:08;34.45;;;22.50;;
21999;SDS011;11164;48.818;2.322;2023-05-14T10:38:33;32.75;;;20.98;;
21999;SDS011;11164;48.818;2.322;2023-05-14T10:41:01;42.35;;;22.80;;
21999;SDS011;11164;48.818;2.322;2023-05-14T10:43:41;37.10;;;21.10;;
21999;SDS011;11164;48.818;2.322;2023-05-14T10:46:09;36.95;;;22.20;;
21999;SDS011;11164;48.818;2.322;2023-05-14T10:48:36;33.90;;;21.52;;
21999;SDS011;11164;48.818;2.322;2023-05-14T10:51:03;35.97;;;22.88;;
21999;SDS011;11164;48.818;2.322;2023-05-14T10:53:36;32.45;;;20.08;;
21999;SDS011;11164;48.818;2.322;2023-05-14T10:56:07;33.38;;;21.02;;
21999;SDS011;11164;48.818;2.322;2023-05-14T10:58:37;31.38;;;21.00;;
21999;SDS011;11164;48.818;2.322;2023-05-14T11:01:07;33.40;;;22.00;;
21999;SDS011;11164;48.818;2.322;2023-05-14T11:03:45;30.40;;;20.38;;
21999;SDS011;11164;48.818;2.322;2023-05-14T11:06:11;29.60;;;20.52;;
21999;SDS011;11164;48.818;2.322;2023-05-14T11:08:39;31.88;;;20.20;;
21999;SDS011;11164;48.818;2.322;2023-05-14T11:11:08;30.80;;;21.17;;
21999;SDS011;11164;48.818;2.322;2023-05-14T11:13:34;31.30;;;20.98;;
21999;SDS011;11164;48.818;2.322;2023-05-14T11:16:00;30.30;;;20.25;;
21999;SDS011;11164;48.818;2.322;2023-05-14T11:18:30;31.90;;;20.80;;
21999;SDS011;11164;48.818;2.322;2023-05-14T11:21:06;34.42;;;24.27;;
21999;SDS011;11164;48.818;2.322;2023-05-14T11:23:31;30.25;;;20.67;;
21999;SDS011;11164;48.818;2.322;2023-05-14T11:25:56;32.97;;;21.25;;
21999;SDS011;11164;48.818;2.322;2023-05-14T11:28:22;31.13;;;20.65;;
21999;SDS011;11164;48.818;2.322;2023-05-14T11:30:51;28.50;;;19.60;;
21999;SDS011;11164;48.818;2.322;2023-05-14T11:33:18;32.33;;;21.60;;
21999;SDS011;11164;48.818;2.322;2023-05-14T11:35:44;33.17;;;19.58;;
21999;SDS011;11164;48.818;2.322;2023-05-14T11:38:19;29.63;;;19.75;;
21999;SDS011;11164;48.818;2.322;2023-05-14T11:40:55;31.08;;;20.13;;
21999;SDS011;11164;48.818;2.322;2023-05-14T11:43:21;27.73;;;18.70;;
21999;SDS011;11164;48.818;2.322;2023-05-14T11:45:53;32.83;;;19.92;;
21999;SDS011;11164;48.818;2.322;2023-05-14T11:48:20;27.38;;;19.48;;
21999;SDS011;11164;48.818;2.322;2023-05-14T11:50:47;27.65;;;19.77;;
21999;SDS011;11164;48.818;2.322;2023-05-14T11:55:43;32.67;;;20.75;;
21999;SDS011;11164;48.818;2.322;2023-05-14T11:58:09;28.13;;;20.05;;
21999;SDS011;11164;48.818;2.322;2023-05-14T12:00:37;28.10;;;19.80;;
21999;SDS011;11164;48.818;2.322;2023-05-14T12:03:04;37.50;;;20.23;;
21999;SDS011;11164;48.818;2.322;2023-05-14T12:05:30;31.60;;;20.63;;
21999;SDS011;11164;48.818;2.322;2023-05-14T12:07:55;29.98;;;20.73;;
21999;SDS011;11164;48.818;2.322;2023-05-14T12:10:21;26.25;;;18.98;;
21999;SDS011;11164;48.818;2.322;2023-05-14T12:12:46;27.88;;;19.67;;
21999;SDS011;11164;48.818;2.322;2023-05-14T12:15:14;26.98;;;19.17;;
21999;SDS011;11164;48.818;2.322;2023-05-14T12:17:41;27.35;;;19.52;;
21999;SDS011;11164;48.818;2.322;2023-05-14T12:20:07;27.75;;;20.05;;
21999;SDS011;11164;48.818;2.322;2023-05-14T12:22:34;27.38;;;19.58;;
21999;SDS011;11164;48.818;2.322;2023-05-14T12:25:00;28.13;;;20.42;;
21999;SDS011;11164;48.818;2.322;2023-05-14T12:27:26;26.83;;;19.77;;
21999;SDS011;11164;48.818;2.322;2023-05-14T12:30:00;24.90;;;18.80;;
21999;SDS011;11164;48.818;2.322;2023-05-14T12:32:27;25.00;;;19.08;;
21999;SDS011;11164;48.818;2.322;2023-05-14T12:34:55;24.45;;;18.33;;
21999;SDS011;11164;48.818;2.322;2023-05-14T12:37:20;24.85;;;18.83;;
21999;SDS011;11164;48.818;2.322;2023-05-14T12:39:45;28.75;;;19.85;;
21999;SDS011;11164;48.818;2.322;2023-05-14T12:42:11;26.95;;;19.33;;
21999;SDS011;11164;48.818;2.322;2023-05-14T12:44:36;24.80;;;17.88;;
21999;SDS011;11164;48.818;2.322;2023-05-14T12:47:01;26.25;;;18.48;;
21999;SDS011;11164;48.818;2.322;2023-05-14T12:49:27;25.58;;;19.65;;
21999;SDS011;11164;48.818;2.322;2023-05-14T12:51:53;28.92;;;19.42;;
21999;SDS011;11164;48.818;2.322;2023-05-14T12:54:19;26.67;;;19.02;;
21999;SDS011;11164;48.818;2.322;2023-05-14T12:56:44;27.77;;;19.05;;
21999;SDS011;11164;48.818;2.322;2023-05-14T12:59:09;21.05;;;17.35;;
21999;SDS011;11164;48.818;2.322;2023-05-14T13:01:35;22.90;;;17.48;;
21999;SDS011;11164;48.818;2.322;2023-05-14T13:04:02;24.00;;;17.50;;
21999;SDS011;11164;48.818;2.322;2023-05-14T13:06:27;21.75;;;16.75;;
21999;SDS011;11164;48.818;2.322;2023-05-14T13:08:55;21.80;;;16.02;;
21999;SDS011;11164;48.818;2.322;2023-05-14T13:11:23;20.88;;;16.45;;
21999;SDS011;11164;48.818;2.322;2023-05-14T13:13:49;21.17;;;15.38;;
21999;SDS011;11164;48.818;2.322;2023-05-14T13:16:14;23.15;;;17.40;;
21999;SDS011;11164;48.818;2.322;2023-05-14T13:18:41;22.33;;;16.55;;
21999;SDS011;11164;48.818;2.322;2023-05-14T13:21:06;22.85;;;16.40;;
21999;SDS011;11164;48.818;2.322;2023-05-14T13:23:31;26.92;;;16.83;;
21999;SDS011;11164;48.818;2.322;2023-05-14T13:25:58;20.35;;;16.13;;
21999;SDS011;11164;48.818;2.322;2023-05-14T13:28:23;21.63;;;16.88;;
21999;SDS011;11164;48.818;2.322;2023-05-14T13:31:08;23.40;;;16.70;;
21999;SDS011;11164;48.818;2.322;2023-05-14T13:33:36;21.20;;;17.48;;
21999;SDS011;11164;48.818;2.322;2023-05-14T13:36:04;20.02;;;16.13;;
21999;SDS011;11164;48.818;2.322;2023-05-14T13:38:29;19.42;;;15.43;;
21999;SDS011;11164;48.818;2.322;2023-05-14T13:40:55;22.00;;;16.42;;
21999;SDS011;11164;48.818;2.322;2023-05-14T13:43:25;21.70;;;15.82;;
21999;SDS011;11164;48.818;2.322;2023-05-14T13:45:51;22.63;;;16.00;;
21999;SDS011;11164;48.818;2.322;2023-05-14T13:48:16;32.53;;;23.77;;
21999;SDS011;11164;48.818;2.322;2023-05-14T13:50:43;19.40;;;14.50;;
21999;SDS011;11164;48.818;2.322;2023-05-14T13:53:08;16.75;;;14.15;;
21999;SDS011;11164;48.818;2.322;2023-05-14T13:55:34;23.63;;;15.52;;
21999;SDS011;11164;48.818;2.322;2023-05-14T13:58:00;17.63;;;13.18;;
21999;SDS011;11164;48.818;2.322;2023-05-14T14:00:26;17.90;;;13.73;;
21999;SDS011;11164;48.818;2.322;2023-05-14T14:02:51;19.27;;;13.75;;
21999;SDS011;11164;48.818;2.322;2023-05-14T14:05:17;20.23;;;13.15;;
21999;SDS011;11164;48.818;2.322;2023-05-14T14:07:42;14.98;;;12.35;;
21999;SDS011;11164;48.818;2.322;2023-05-14T14:10:07;14.43;;;12.40;;
21999;SDS011;11164;48.818;2.322;2023-05-14T14:12:33;16.02;;;11.90;;
21999;SDS011;11164;48.818;2.322;2023-05-14T14:14:58;17.40;;;11.82;;
21999;SDS011;11164;48.818;2.322;2023-05-14T14:17:25;13.48;;;11.15;;
21999;SDS011;11164;48.818;2.322;2023-05-14T14:19:50;15.63;;;11.15;;
21999;SDS011;11164;48.818;2.322;2023-05-14T14:22:15;16.95;;;11.95;;
21999;SDS011;11164;48.818;2.322;2023-05-14T14:24:41;15.48;;;12.13;;
21999;SDS011;11164;48.818;2.322;2023-05-14T14:27:07;13.85;;;10.95;;
21999;SDS011;11164;48.818;2.322;2023-05-14T14:29:32;15.07;;;11.65;;